sensor_id;sensor_type;location;lat;lon;timestamp;P1;durP1;ratioP1;P2;durP2;ratioP2
60038;SDS011;45916;52.734;6.544;2023-08-01T00:00:44;15.13;;;8.63;;
60038;SDS011;45916;52.734;6.544;2023-08-01T00:03:10;11.60;;;8.50;;
60038;SDS011;45916;52.734;6.544;2023-08-01T00:05:35;13.45;;;9.52;;
60038;SDS011;45916;52.734;6.544;2023-08-01T00:08:02;17.25;;;8.40;;
60038;SDS011;45916;52.734;6.544;2023-08-01T00:10:28;11.70;;;7.85;;
60038;SDS011;45916;52.734;6.544;2023-08-01T00:12:54;12.55;;;8.27;;
60038;SDS011;45916;52.734;6.544;2023-08-01T00:15:19;12.07;;;8.23;;
60038;SDS011;45916;52.734;6.544;2023-08-01T00:17:45;13.13;;;7.97;;
60038;SDS011;45916;52.734;6.544;2023-08-01T00:20:11;14.05;;;7.35;;
60038;SDS011;45916;52.734;6.544;2023-08-01T00:22:37;14.05;;;8.52;;
60038;SDS011;45916;52.734;6.544;2023-08-01T00:25:02;14.45;;;8.02;;
60038;SDS011;45916;52.734;6.544;2023-08-01T00:27:28;11.70;;;7.32;;
60038;SDS011;45916;52.734;6.544;2023-08-01T00:29:54;11.57;;;8.43;;
60038;SDS011;45916;52.734;6.544;2023-08-01T00:32:20;12.60;;;7.45;;
60038;SDS011;45916;52.734;6.544;2023-08-01T00:34:46;14.90;;;7.43;;
60038;SDS011;45916;52.734;6.544;2023-08-01T00:39:40;11.25;;;6.75;;
60038;SDS011;45916;52.734;6.544;2023-08-01T00:42:06;10.80;;;7.00;;
60038;SDS011;45916;52.734;6.544;2023-08-01T00:44:31;12.38;;;6.93;;
60038;SDS011;45916;52.734;6.544;2023-08-01T00:46:57;10.25;;;6.60;;
60038;SDS011;45916;52.734;6.544;2023-08-01T00:49:23;10.48;;;6.15;;
60038;SDS011;45916;52.734;6.544;2023-08-01T00:51:48;11.65;;;6.47;;
60038;SDS011;45916;52.734;6.544;2023-08-01T00:54:14;13.25;;;6.90;;
60038;SDS011;45916;52.734;6.544;2023-08-01T00:56:40;12.48;;;6.45;;
60038;SDS011;45916;52.734;6.544;2023-08-01T00:59:06;10.98;;;6.38;;
60038;SDS011;45916;52.734;6.544;2023-08-01T01:01:32;9.65;;;5.90;;
60038;SDS011;45916;52.734;6.544;2023-08-01T01:03:57;11.15;;;5.78;;
60038;SDS011;45916;52.734;6.544;2023-08-01T01:09:34;10.48;;;6.38;;
60038;SDS011;45916;52.734;6.544;2023-08-01T01:12:00;12.07;;;6.28;;
60038;SDS011;45916;52.734;6.544;2023-08-01T01:14:26;10.38;;;5.72;;
60038;SDS011;45916;52.734;6.544;2023-08-01T01:16:52;12.23;;;6.20;;
60038;SDS011;45916;52.734;6.544;2023-08-01T01:19:18;14.43;;;6.80;;
60038;SDS011;45916;52.734;6.544;2023-08-01T01:21:44;10.35;;;6.68;;
60038;SDS011;45916;52.734;6.544;2023-08-01T01:24:11;13.10;;;7.07;;
60038;SDS011;45916;52.734;6.544;2023-08-01T01:26:39;15.00;;;7.43;;
60038;SDS011;45916;52.734;6.544;2023-08-01T01:29:06;12.90;;;8.43;;
60038;SDS011;45916;52.734;6.544;2023-08-01T01:31:33;13.93;;;7.30;;
60038;SDS011;45916;52.734;6.544;2023-08-01T01:34:00;11.13;;;8.15;;
60038;SDS011;45916;52.734;6.544;2023-08-01T01:36:28;15.35;;;8.30;;
60038;SDS011;45916;52.734;6.544;2023-08-01T01:38:54;13.40;;;8.27;;
60038;SDS011;45916;52.734;6.544;2023-08-01T01:41:20;17.45;;;8.88;;
60038;SDS011;45916;52.734;6.544;2023-08-01T01:43:45;12.20;;;8.25;;
60038;SDS011;45916;52.734;6.544;2023-08-01T01:46:11;12.82;;;7.30;;
60038;SDS011;45916;52.734;6.544;2023-08-01T01:48:37;13.30;;;7.47;;
60038;SDS011;45916;52.734;6.544;2023-08-01T01:51:02;15.32;;;8.02;;
60038;SDS011;45916;52.734;6.544;2023-08-01T01:53:28;13.70;;;8.10;;
60038;SDS011;45916;52.734;6.544;2023-08-01T01:55:54;16.13;;;9.50;;
60038;SDS011;45916;52.734;6.544;2023-08-01T01:58:19;14.45;;;8.40;;
60038;SDS011;45916;52.734;6.544;2023-08-01T02:00:45;17.50;;;8.15;;
60038;SDS011;45916;52.734;6.544;2023-08-01T02:03:10;12.23;;;7.18;;
60038;SDS011;45916;52.734;6.544;2023-08-01T02:05:39;16.00;;;8.68;;
60038;SDS011;45916;52.734;6.544;2023-08-01T02:08:05;12.43;;;7.68;;
60038;SDS011;45916;52.734;6.544;2023-08-01T02:10:31;15.82;;;8.32;;
60038;SDS011;45916;52.734;6.544;2023-08-01T02:12:56;12.75;;;8.10;;
60038;SDS011;45916;52.734;6.544;2023-08-01T02:15:22;11.32;;;6.75;;
60038;SDS011;45916;52.734;6.544;2023-08-01T02:17:48;13.68;;;7.97;;
60038;SDS011;45916;52.734;6.544;2023-08-01T02:20:14;13.20;;;7.30;;
60038;SDS011;45916;52.734;6.544;2023-08-01T02:22:39;12.15;;;8.00;;
60038;SDS011;45916;52.734;6.544;2023-08-01T02:25:05;12.75;;;7.57;;
60038;SDS011;45916;52.734;6.544;2023-08-01T02:27:31;12.50;;;7.88;;
60038;SDS011;45916;52.734;6.544;2023-08-01T02:29:56;13.70;;;7.60;;
60038;SDS011;45916;52.734;6.544;2023-08-01T02:32:22;11.98;;;6.82;;
60038;SDS011;45916;52.734;6.544;2023-08-01T02:34:48;12.65;;;7.50;;
60038;SDS011;45916;52.734;6.544;2023-08-01T02:37:13;10.80;;;7.55;;
60038;SDS011;45916;52.734;6.544;2023-08-01T02:39:39;11.40;;;6.65;;
60038;SDS011;45916;52.734;6.544;2023-08-01T02:42:05;13.45;;;7.63;;
60038;SDS011;45916;52.734;6.544;2023-08-01T02:44:31;12.68;;;7.55;;
60038;SDS011;45916;52.734;6.544;2023-08-01T02:46:56;12.15;;;7.82;;
60038;SDS011;45916;52.734;6.544;2023-08-01T02:49:22;14.45;;;7.82;;
60038;SDS011;45916;52.734;6.544;2023-08-01T02:51:48;14.38;;;8.02;;
60038;SDS011;45916;52.734;6.544;2023-08-01T02:54:14;12.88;;;7.70;;
60038;SDS011;45916;52.734;6.544;2023-08-01T02:56:40;13.00;;;7.40;;
60038;SDS011;45916;52.734;6.544;2023-08-01T02:59:06;12.85;;;7.47;;
60038;SDS011;45916;52.734;6.544;2023-08-01T03:01:37;12.05;;;7.03;;
60038;SDS011;45916;52.734;6.544;2023-08-01T03:04:03;14.23;;;7.70;;
60038;SDS011;45916;52.734;6.544;2023-08-01T03:06:33;13.88;;;7.60;;
60038;SDS011;45916;52.734;6.544;2023-08-01T03:08:59;14.75;;;7.38;;
60038;SDS011;45916;52.734;6.544;2023-08-01T03:11:25;10.07;;;8.05;;
60038;SDS011;45916;52.734;6.544;2023-08-01T03:13:51;12.57;;;7.72;;
60038;SDS011;45916;52.734;6.544;2023-08-01T03:16:17;12.45;;;7.15;;
60038;SDS011;45916;52.734;6.544;2023-08-01T03:18:43;12.27;;;7.13;;
60038;SDS011;45916;52.734;6.544;2023-08-01T03:21:09;13.40;;;7.47;;
60038;SDS011;45916;52.734;6.544;2023-08-01T03:23:35;12.88;;;7.30;;
60038;SDS011;45916;52.734;6.544;2023-08-01T03:26:01;12.93;;;7.13;;
60038;SDS011;45916;52.734;6.544;2023-08-01T03:28:27;15.27;;;8.35;;
60038;SDS011;45916;52.734;6.544;2023-08-01T03:30:53;16.80;;;7.57;;
60038;SDS011;45916;52.734;6.544;2023-08-01T03:33:22;11.57;;;7.00;;
60038;SDS011;45916;52.734;6.544;2023-08-01T03:35:47;15.95;;;7.13;;
60038;SDS011;45916;52.734;6.544;2023-08-01T03:38:13;12.95;;;7.47;;
60038;SDS011;45916;52.734;6.544;2023-08-01T03:40:39;14.25;;;7.25;;
60038;SDS011;45916;52.734;6.544;2023-08-01T03:43:05;14.45;;;7.18;;
60038;SDS011;45916;52.734;6.544;2023-08-01T03:45:31;11.38;;;7.13;;
60038;SDS011;45916;52.734;6.544;2023-08-01T03:47:58;9.85;;;4.88;;
60038;SDS011;45916;52.734;6.544;2023-08-01T03:50:24;8.85;;;5.03;;
60038;SDS011;45916;52.734;6.544;2023-08-01T03:52:49;7.80;;;4.13;;
60038;SDS011;45916;52.734;6.544;2023-08-01T03:55:15;6.88;;;3.20;;
60038;SDS011;45916;52.734;6.544;2023-08-01T03:57:41;9.20;;;3.15;;
60038;SDS011;45916;52.734;6.544;2023-08-01T04:00:08;6.10;;;3.00;;
60038;SDS011;45916;52.734;6.544;2023-08-01T04:02:40;5.63;;;2.53;;
60038;SDS011;45916;52.734;6.544;2023-08-01T04:05:07;5.63;;;2.03;;
60038;SDS011;45916;52.734;6.544;2023-08-01T04:07:34;6.90;;;2.60;;
60038;SDS011;45916;52.734;6.544;2023-08-01T04:10:01;5.38;;;2.38;;
60038;SDS011;45916;52.734;6.544;2023-08-01T04:12:27;5.90;;;2.15;;
60038;SDS011;45916;52.734;6.544;2023-08-01T04:14:53;7.78;;;2.47;;
60038;SDS011;45916;52.734;6.544;2023-08-01T04:17:19;6.15;;;2.72;;
60038;SDS011;45916;52.734;6.544;2023-08-01T04:19:45;6.22;;;2.53;;
60038;SDS011;45916;52.734;6.544;2023-08-01T04:22:10;6.55;;;2.92;;
60038;SDS011;45916;52.734;6.544;2023-08-01T04:24:36;6.75;;;2.60;;
60038;SDS011;45916;52.734;6.544;2023-08-01T04:27:02;6.53;;;2.88;;
60038;SDS011;45916;52.734;6.544;2023-08-01T04:29:28;7.40;;;2.85;;
60038;SDS011;45916;52.734;6.544;2023-08-01T04:31:53;9.52;;;2.92;;
60038;SDS011;45916;52.734;6.544;2023-08-01T04:34:19;8.55;;;3.10;;
60038;SDS011;45916;52.734;6.544;2023-08-01T04:36:45;5.25;;;2.45;;
60038;SDS011;45916;52.734;6.544;2023-08-01T04:39:10;5.93;;;2.53;;
60038;SDS011;45916;52.734;6.544;2023-08-01T04:41:36;7.63;;;2.80;;
60038;SDS011;45916;52.734;6.544;2023-08-01T04:44:02;5.97;;;2.35;;
60038;SDS011;45916;52.734;6.544;2023-08-01T04:46:28;6.45;;;2.55;;
60038;SDS011;45916;52.734;6.544;2023-08-01T04:48:53;7.18;;;2.53;;
60038;SDS011;45916;52.734;6.544;2023-08-01T04:51:19;5.82;;;2.55;;
60038;SDS011;45916;52.734;6.544;2023-08-01T04:53:44;6.82;;;2.65;;
60038;SDS011;45916;52.734;6.544;2023-08-01T04:56:10;6.22;;;2.55;;
60038;SDS011;45916;52.734;6.544;2023-08-01T04:58:36;7.47;;;2.50;;
60038;SDS011;45916;52.734;6.544;2023-08-01T05:01:02;6.07;;;2.33;;
60038;SDS011;45916;52.734;6.544;2023-08-01T05:03:27;7.43;;;2.58;;
60038;SDS011;45916;52.734;6.544;2023-08-01T05:05:53;8.05;;;3.00;;
60038;SDS011;45916;52.734;6.544;2023-08-01T05:08:18;5.43;;;2.42;;
60038;SDS011;45916;52.734;6.544;2023-08-01T05:10:44;5.47;;;2.30;;
60038;SDS011;45916;52.734;6.544;2023-08-01T05:13:10;4.80;;;2.25;;
60038;SDS011;45916;52.734;6.544;2023-08-01T05:15:36;7.00;;;2.85;;
60038;SDS011;45916;52.734;6.544;2023-08-01T05:18:01;7.25;;;2.60;;
60038;SDS011;45916;52.734;6.544;2023-08-01T05:20:27;7.30;;;3.20;;
60038;SDS011;45916;52.734;6.544;2023-08-01T05:22:57;5.50;;;2.55;;
60038;SDS011;45916;52.734;6.544;2023-08-01T05:25:24;4.63;;;2.25;;
60038;SDS011;45916;52.734;6.544;2023-08-01T05:27:50;6.30;;;2.70;;
60038;SDS011;45916;52.734;6.544;2023-08-01T05:30:15;7.50;;;3.13;;
60038;SDS011;45916;52.734;6.544;2023-08-01T05:32:41;5.55;;;2.92;;
60038;SDS011;45916;52.734;6.544;2023-08-01T05:35:08;7.23;;;2.90;;
60038;SDS011;45916;52.734;6.544;2023-08-01T05:37:34;8.93;;;3.35;;
60038;SDS011;45916;52.734;6.544;2023-08-01T05:40:01;7.70;;;2.97;;
60038;SDS011;45916;52.734;6.544;2023-08-01T05:42:28;5.32;;;2.95;;
60038;SDS011;45916;52.734;6.544;2023-08-01T05:44:54;9.30;;;3.50;;
60038;SDS011;45916;52.734;6.544;2023-08-01T05:47:19;8.73;;;3.30;;
60038;SDS011;45916;52.734;6.544;2023-08-01T05:49:47;5.70;;;2.67;;
60038;SDS011;45916;52.734;6.544;2023-08-01T05:52:13;6.03;;;3.00;;
60038;SDS011;45916;52.734;6.544;2023-08-01T05:54:39;6.55;;;2.90;;
60038;SDS011;45916;52.734;6.544;2023-08-01T05:57:04;5.82;;;3.50;;
60038;SDS011;45916;52.734;6.544;2023-08-01T05:59:30;6.47;;;3.00;;
60038;SDS011;45916;52.734;6.544;2023-08-01T06:01:56;5.97;;;2.90;;
60038;SDS011;45916;52.734;6.544;2023-08-01T06:04:22;6.43;;;3.00;;
60038;SDS011;45916;52.734;6.544;2023-08-01T06:06:48;6.45;;;2.78;;
60038;SDS011;45916;52.734;6.544;2023-08-01T06:09:13;8.63;;;3.35;;
60038;SDS011;45916;52.734;6.544;2023-08-01T06:11:39;5.72;;;2.65;;
60038;SDS011;45916;52.734;6.544;2023-08-01T06:14:05;5.65;;;2.55;;
60038;SDS011;45916;52.734;6.544;2023-08-01T06:16:31;8.55;;;3.28;;
60038;SDS011;45916;52.734;6.544;2023-08-01T06:18:56;8.13;;;2.88;;
60038;SDS011;45916;52.734;6.544;2023-08-01T06:21:22;8.45;;;2.95;;
60038;SDS011;45916;52.734;6.544;2023-08-01T06:23:48;6.97;;;2.65;;
60038;SDS011;45916;52.734;6.544;2023-08-01T06:26:14;6.93;;;2.58;;
60038;SDS011;45916;52.734;6.544;2023-08-01T06:28:42;6.82;;;3.22;;
60038;SDS011;45916;52.734;6.544;2023-08-01T06:31:08;5.78;;;2.55;;
60038;SDS011;45916;52.734;6.544;2023-08-01T06:33:34;7.65;;;3.38;;
60038;SDS011;45916;52.734;6.544;2023-08-01T06:35:59;5.95;;;3.20;;
60038;SDS011;45916;52.734;6.544;2023-08-01T06:38:25;7.13;;;2.90;;
60038;SDS011;45916;52.734;6.544;2023-08-01T06:40:51;7.03;;;2.90;;
60038;SDS011;45916;52.734;6.544;2023-08-01T06:43:16;7.40;;;2.72;;
60038;SDS011;45916;52.734;6.544;2023-08-01T06:45:42;4.32;;;2.03;;
60038;SDS011;45916;52.734;6.544;2023-08-01T06:48:07;5.93;;;2.40;;
60038;SDS011;45916;52.734;6.544;2023-08-01T06:50:33;6.18;;;2.40;;
60038;SDS011;45916;52.734;6.544;2023-08-01T06:52:59;6.22;;;2.13;;
60038;SDS011;45916;52.734;6.544;2023-08-01T06:55:26;5.55;;;2.08;;
60038;SDS011;45916;52.734;6.544;2023-08-01T06:57:52;5.57;;;1.83;;
60038;SDS011;45916;52.734;6.544;2023-08-01T07:00:17;5.80;;;2.28;;
60038;SDS011;45916;52.734;6.544;2023-08-01T07:02:43;8.75;;;2.42;;
60038;SDS011;45916;52.734;6.544;2023-08-01T07:05:09;6.90;;;2.03;;
60038;SDS011;45916;52.734;6.544;2023-08-01T07:07:35;5.75;;;2.20;;
60038;SDS011;45916;52.734;6.544;2023-08-01T07:10:00;5.95;;;2.30;;
60038;SDS011;45916;52.734;6.544;2023-08-01T07:12:26;6.85;;;3.25;;
60038;SDS011;45916;52.734;6.544;2023-08-01T07:14:52;6.40;;;2.33;;
60038;SDS011;45916;52.734;6.544;2023-08-01T07:17:18;5.25;;;1.90;;
60038;SDS011;45916;52.734;6.544;2023-08-01T07:19:43;5.82;;;1.92;;
60038;SDS011;45916;52.734;6.544;2023-08-01T07:22:09;6.25;;;2.20;;
60038;SDS011;45916;52.734;6.544;2023-08-01T07:24:35;4.90;;;1.73;;
60038;SDS011;45916;52.734;6.544;2023-08-01T07:27:00;5.90;;;2.28;;
60038;SDS011;45916;52.734;6.544;2023-08-01T07:29:26;6.07;;;2.13;;
60038;SDS011;45916;52.734;6.544;2023-08-01T07:31:52;5.35;;;1.92;;
60038;SDS011;45916;52.734;6.544;2023-08-01T07:34:18;6.68;;;2.13;;
60038;SDS011;45916;52.734;6.544;2023-08-01T07:36:45;7.07;;;2.35;;
60038;SDS011;45916;52.734;6.544;2023-08-01T07:39:13;5.25;;;2.65;;
60038;SDS011;45916;52.734;6.544;2023-08-01T07:41:39;4.90;;;2.03;;
60038;SDS011;45916;52.734;6.544;2023-08-01T07:44:05;8.52;;;2.90;;
60038;SDS011;45916;52.734;6.544;2023-08-01T07:46:31;7.15;;;2.28;;
60038;SDS011;45916;52.734;6.544;2023-08-01T07:48:57;6.40;;;2.47;;
60038;SDS011;45916;52.734;6.544;2023-08-01T07:51:24;5.55;;;2.17;;
60038;SDS011;45916;52.734;6.544;2023-08-01T07:53:51;6.72;;;2.42;;
60038;SDS011;45916;52.734;6.544;2023-08-01T07:56:18;5.78;;;2.40;;
60038;SDS011;45916;52.734;6.544;2023-08-01T07:58:44;6.28;;;2.80;;
60038;SDS011;45916;52.734;6.544;2023-08-01T08:01:10;5.90;;;2.53;;
60038;SDS011;45916;52.734;6.544;2023-08-01T08:03:36;5.63;;;2.40;;
60038;SDS011;45916;52.734;6.544;2023-08-01T08:06:01;6.05;;;2.45;;
60038;SDS011;45916;52.734;6.544;2023-08-01T08:08:29;7.70;;;3.07;;
60038;SDS011;45916;52.734;6.544;2023-08-01T08:10:55;6.97;;;2.97;;
60038;SDS011;45916;52.734;6.544;2023-08-01T08:13:21;10.30;;;3.38;;
60038;SDS011;45916;52.734;6.544;2023-08-01T08:15:47;6.88;;;2.80;;
60038;SDS011;45916;52.734;6.544;2023-08-01T08:18:13;7.20;;;2.80;;
60038;SDS011;45916;52.734;6.544;2023-08-01T08:20:42;8.10;;;3.00;;
60038;SDS011;45916;52.734;6.544;2023-08-01T08:23:09;7.32;;;3.00;;
60038;SDS011;45916;52.734;6.544;2023-08-01T08:25:35;8.93;;;3.00;;
60038;SDS011;45916;52.734;6.544;2023-08-01T08:28:01;6.97;;;3.47;;
60038;SDS011;45916;52.734;6.544;2023-08-01T08:30:27;9.10;;;3.00;;
60038;SDS011;45916;52.734;6.544;2023-08-01T08:32:53;8.25;;;3.35;;
60038;SDS011;45916;52.734;6.544;2023-08-01T08:35:19;8.32;;;3.28;;
60038;SDS011;45916;52.734;6.544;2023-08-01T08:37:44;7.53;;;3.35;;
60038;SDS011;45916;52.734;6.544;2023-08-01T08:40:11;6.78;;;3.35;;
60038;SDS011;45916;52.734;6.544;2023-08-01T08:42:38;9.30;;;3.47;;
60038;SDS011;45916;52.734;6.544;2023-08-01T08:45:05;6.72;;;3.50;;
60038;SDS011;45916;52.734;6.544;2023-08-01T08:47:34;8.95;;;3.70;;
60038;SDS011;45916;52.734;6.544;2023-08-01T08:50:01;7.28;;;3.60;;
60038;SDS011;45916;52.734;6.544;2023-08-01T08:52:28;7.18;;;3.63;;
60038;SDS011;45916;52.734;6.544;2023-08-01T08:54:54;10.65;;;4.50;;
60038;SDS011;45916;52.734;6.544;2023-08-01T08:57:21;10.20;;;4.07;;
60038;SDS011;45916;52.734;6.544;2023-08-01T08:59:48;8.93;;;3.83;;
60038;SDS011;45916;52.734;6.544;2023-08-01T09:02:15;8.77;;;4.18;;
60038;SDS011;45916;52.734;6.544;2023-08-01T09:04:43;7.75;;;3.70;;
60038;SDS011;45916;52.734;6.544;2023-08-01T09:07:09;8.00;;;3.80;;
60038;SDS011;45916;52.734;6.544;2023-08-01T09:09:36;10.15;;;3.95;;
60038;SDS011;45916;52.734;6.544;2023-08-01T09:12:03;10.13;;;3.92;;
60038;SDS011;45916;52.734;6.544;2023-08-01T09:14:29;8.35;;;3.78;;
60038;SDS011;45916;52.734;6.544;2023-08-01T09:17:05;7.88;;;3.58;;
60038;SDS011;45916;52.734;6.544;2023-08-01T09:19:32;8.40;;;2.88;;
60038;SDS011;45916;52.734;6.544;2023-08-01T09:21:58;7.40;;;3.40;;
60038;SDS011;45916;52.734;6.544;2023-08-01T09:24:23;10.40;;;3.70;;
60038;SDS011;45916;52.734;6.544;2023-08-01T09:26:49;9.52;;;4.03;;
60038;SDS011;45916;52.734;6.544;2023-08-01T09:29:19;5.88;;;3.30;;
60038;SDS011;45916;52.734;6.544;2023-08-01T09:31:45;8.15;;;3.30;;
60038;SDS011;45916;52.734;6.544;2023-08-01T09:34:24;7.13;;;4.10;;
60038;SDS011;45916;52.734;6.544;2023-08-01T09:36:51;7.13;;;3.97;;
60038;SDS011;45916;52.734;6.544;2023-08-01T09:39:23;8.00;;;3.55;;
60038;SDS011;45916;52.734;6.544;2023-08-01T09:42:07;8.48;;;4.85;;
60038;SDS011;45916;52.734;6.544;2023-08-01T09:44:34;9.68;;;4.30;;
60038;SDS011;45916;52.734;6.544;2023-08-01T09:47:04;8.48;;;4.60;;
60038;SDS011;45916;52.734;6.544;2023-08-01T09:49:32;8.77;;;4.80;;
60038;SDS011;45916;52.734;6.544;2023-08-01T09:51:59;7.57;;;4.10;;
60038;SDS011;45916;52.734;6.544;2023-08-01T09:54:26;10.18;;;4.40;;
60038;SDS011;45916;52.734;6.544;2023-08-01T09:56:52;8.60;;;4.55;;
60038;SDS011;45916;52.734;6.544;2023-08-01T09:59:23;10.10;;;5.57;;
60038;SDS011;45916;52.734;6.544;2023-08-01T10:01:50;9.52;;;5.07;;
60038;SDS011;45916;52.734;6.544;2023-08-01T10:04:21;9.75;;;4.75;;
60038;SDS011;45916;52.734;6.544;2023-08-01T10:09:25;7.47;;;4.30;;
60038;SDS011;45916;52.734;6.544;2023-08-01T10:11:51;8.23;;;4.65;;
60038;SDS011;45916;52.734;6.544;2023-08-01T10:14:19;11.15;;;5.13;;
60038;SDS011;45916;52.734;6.544;2023-08-01T10:16:45;8.77;;;5.10;;
60038;SDS011;45916;52.734;6.544;2023-08-01T10:19:12;9.68;;;4.40;;
60038;SDS011;45916;52.734;6.544;2023-08-01T10:21:39;8.48;;;4.30;;
60038;SDS011;45916;52.734;6.544;2023-08-01T10:24:07;8.25;;;4.18;;
60038;SDS011;45916;52.734;6.544;2023-08-01T10:26:34;7.28;;;3.45;;
60038;SDS011;45916;52.734;6.544;2023-08-01T10:29:00;8.45;;;3.17;;
60038;SDS011;45916;52.734;6.544;2023-08-01T10:31:27;7.03;;;3.50;;
60038;SDS011;45916;52.734;6.544;2023-08-01T10:34:02;6.30;;;2.75;;
60038;SDS011;45916;52.734;6.544;2023-08-01T10:36:32;8.30;;;2.45;;
60038;SDS011;45916;52.734;6.544;2023-08-01T10:38:59;5.50;;;2.78;;
60038;SDS011;45916;52.734;6.544;2023-08-01T10:41:26;5.07;;;2.47;;
60038;SDS011;45916;52.734;6.544;2023-08-01T10:44:10;5.78;;;2.30;;
60038;SDS011;45916;52.734;6.544;2023-08-01T10:52:01;5.32;;;1.98;;
60038;SDS011;45916;52.734;6.544;2023-08-01T10:54:43;5.10;;;1.70;;
60038;SDS011;45916;52.734;6.544;2023-08-01T10:57:09;5.28;;;2.00;;
60038;SDS011;45916;52.734;6.544;2023-08-01T10:59:41;5.22;;;2.08;;
60038;SDS011;45916;52.734;6.544;2023-08-01T11:02:08;5.93;;;1.98;;
60038;SDS011;45916;52.734;6.544;2023-08-01T11:04:33;5.75;;;1.80;;
60038;SDS011;45916;52.734;6.544;2023-08-01T11:06:59;6.93;;;1.92;;
60038;SDS011;45916;52.734;6.544;2023-08-01T11:09:26;6.88;;;2.13;;
60038;SDS011;45916;52.734;6.544;2023-08-01T11:11:56;5.25;;;1.50;;
60038;SDS011;45916;52.734;6.544;2023-08-01T11:14:25;5.18;;;1.70;;
60038;SDS011;45916;52.734;6.544;2023-08-01T11:16:53;5.72;;;1.80;;
60038;SDS011;45916;52.734;6.544;2023-08-01T11:19:21;6.22;;;1.90;;
60038;SDS011;45916;52.734;6.544;2023-08-01T11:21:50;6.70;;;2.00;;
60038;SDS011;45916;52.734;6.544;2023-08-01T11:24:17;5.95;;;2.47;;
60038;SDS011;45916;52.734;6.544;2023-08-01T11:26:44;6.03;;;1.90;;
60038;SDS011;45916;52.734;6.544;2023-08-01T11:29:12;4.88;;;2.30;;
60038;SDS011;45916;52.734;6.544;2023-08-01T11:31:39;6.35;;;2.05;;
60038;SDS011;45916;52.734;6.544;2023-08-01T11:34:08;4.70;;;2.03;;
60038;SDS011;45916;52.734;6.544;2023-08-01T11:36:35;8.40;;;2.28;;
60038;SDS011;45916;52.734;6.544;2023-08-01T11:39:03;6.63;;;2.55;;
60038;SDS011;45916;52.734;6.544;2023-08-01T11:41:29;6.65;;;2.20;;
60038;SDS011;45916;52.734;6.544;2023-08-01T11:43:55;6.45;;;1.95;;
60038;SDS011;45916;52.734;6.544;2023-08-01T11:46:33;6.68;;;2.35;;
60038;SDS011;45916;52.734;6.544;2023-08-01T11:49:01;5.15;;;1.80;;
60038;SDS011;45916;52.734;6.544;2023-08-01T11:51:28;7.38;;;2.10;;
60038;SDS011;45916;52.734;6.544;2023-08-01T11:54:00;7.22;;;2.45;;
60038;SDS011;45916;52.734;6.544;2023-08-01T11:56:27;5.57;;;2.30;;
60038;SDS011;45916;52.734;6.544;2023-08-01T11:58:53;7.03;;;2.85;;
60038;SDS011;45916;52.734;6.544;2023-08-01T12:01:19;7.70;;;2.22;;
60038;SDS011;45916;52.734;6.544;2023-08-01T12:03:45;6.10;;;2.33;;
60038;SDS011;45916;52.734;6.544;2023-08-01T12:06:15;6.88;;;2.72;;
60038;SDS011;45916;52.734;6.544;2023-08-01T12:11:19;11.77;;;3.20;;
60038;SDS011;45916;52.734;6.544;2023-08-01T12:14:05;8.20;;;2.50;;
60038;SDS011;45916;52.734;6.544;2023-08-01T12:16:32;7.82;;;3.20;;
60038;SDS011;45916;52.734;6.544;2023-08-01T12:18:58;6.57;;;2.97;;
60038;SDS011;45916;52.734;6.544;2023-08-01T12:21:24;7.80;;;2.90;;
60038;SDS011;45916;52.734;6.544;2023-08-01T12:23:50;8.55;;;2.67;;
60038;SDS011;45916;52.734;6.544;2023-08-01T12:26:15;9.48;;;3.60;;
60038;SDS011;45916;52.734;6.544;2023-08-01T12:28:41;6.85;;;2.97;;
60038;SDS011;45916;52.734;6.544;2023-08-01T12:31:07;8.63;;;3.03;;
60038;SDS011;45916;52.734;6.544;2023-08-01T12:33:32;7.63;;;3.35;;
60038;SDS011;45916;52.734;6.544;2023-08-01T12:35:59;7.40;;;2.85;;
60038;SDS011;45916;52.734;6.544;2023-08-01T12:38:25;8.55;;;2.92;;
60038;SDS011;45916;52.734;6.544;2023-08-01T12:40:51;6.43;;;3.35;;
60038;SDS011;45916;52.734;6.544;2023-08-01T12:43:17;9.70;;;2.95;;
60038;SDS011;45916;52.734;6.544;2023-08-01T12:45:50;7.13;;;2.92;;
60038;SDS011;45916;52.734;6.544;2023-08-01T12:48:24;9.32;;;2.75;;
60038;SDS011;45916;52.734;6.544;2023-08-01T12:50:50;6.25;;;2.10;;
60038;SDS011;45916;52.734;6.544;2023-08-01T12:53:16;6.07;;;3.08;;
60038;SDS011;45916;52.734;6.544;2023-08-01T12:55:43;6.32;;;2.63;;
60038;SDS011;45916;52.734;6.544;2023-08-01T12:58:09;7.05;;;2.38;;
60038;SDS011;45916;52.734;6.544;2023-08-01T13:00:35;7.97;;;2.60;;
60038;SDS011;45916;52.734;6.544;2023-08-01T13:03:01;6.07;;;2.50;;
60038;SDS011;45916;52.734;6.544;2023-08-01T13:05:39;9.15;;;2.70;;
60038;SDS011;45916;52.734;6.544;2023-08-01T13:08:06;5.90;;;2.60;;
60038;SDS011;45916;52.734;6.544;2023-08-01T13:10:32;7.60;;;2.53;;
60038;SDS011;45916;52.734;6.544;2023-08-01T13:12:59;7.13;;;2.85;;
60038;SDS011;45916;52.734;6.544;2023-08-01T13:15:25;8.07;;;2.80;;
60038;SDS011;45916;52.734;6.544;2023-08-01T13:17:52;5.22;;;2.13;;
60038;SDS011;45916;52.734;6.544;2023-08-01T13:20:18;5.50;;;2.40;;
60038;SDS011;45916;52.734;6.544;2023-08-01T13:22:53;7.38;;;1.83;;
60038;SDS011;45916;52.734;6.544;2023-08-01T13:25:24;7.15;;;2.22;;
60038;SDS011;45916;52.734;6.544;2023-08-01T13:27:53;7.15;;;2.63;;
60038;SDS011;45916;52.734;6.544;2023-08-01T13:30:22;6.00;;;2.35;;
60038;SDS011;45916;52.734;6.544;2023-08-01T13:32:48;6.72;;;2.60;;
60038;SDS011;45916;52.734;6.544;2023-08-01T13:35:13;5.50;;;2.20;;
60038;SDS011;45916;52.734;6.544;2023-08-01T13:37:40;6.00;;;1.98;;
60038;SDS011;45916;52.734;6.544;2023-08-01T13:40:06;5.97;;;2.30;;
60038;SDS011;45916;52.734;6.544;2023-08-01T13:42:32;6.70;;;2.33;;
60038;SDS011;45916;52.734;6.544;2023-08-01T13:44:58;5.63;;;1.95;;
60038;SDS011;45916;52.734;6.544;2023-08-01T13:47:24;7.80;;;2.40;;
60038;SDS011;45916;52.734;6.544;2023-08-01T13:49:50;7.25;;;2.53;;
60038;SDS011;45916;52.734;6.544;2023-08-01T13:52:16;6.07;;;2.80;;
60038;SDS011;45916;52.734;6.544;2023-08-01T13:54:42;9.35;;;2.63;;
60038;SDS011;45916;52.734;6.544;2023-08-01T13:57:07;7.47;;;2.85;;
60038;SDS011;45916;52.734;6.544;2023-08-01T13:59:33;5.88;;;2.17;;
60038;SDS011;45916;52.734;6.544;2023-08-01T14:01:58;6.72;;;2.35;;
60038;SDS011;45916;52.734;6.544;2023-08-01T14:04:24;5.20;;;1.98;;
60038;SDS011;45916;52.734;6.544;2023-08-01T14:06:50;4.43;;;1.73;;
60038;SDS011;45916;52.734;6.544;2023-08-01T14:09:15;5.18;;;2.00;;
60038;SDS011;45916;52.734;6.544;2023-08-01T14:11:41;5.22;;;1.80;;
60038;SDS011;45916;52.734;6.544;2023-08-01T14:14:07;5.45;;;1.77;;
60038;SDS011;45916;52.734;6.544;2023-08-01T14:16:32;6.10;;;1.98;;
60038;SDS011;45916;52.734;6.544;2023-08-01T14:18:58;5.65;;;1.77;;
60038;SDS011;45916;52.734;6.544;2023-08-01T14:21:24;4.28;;;2.00;;
60038;SDS011;45916;52.734;6.544;2023-08-01T14:23:50;5.25;;;1.83;;
60038;SDS011;45916;52.734;6.544;2023-08-01T14:26:15;3.50;;;1.67;;
60038;SDS011;45916;52.734;6.544;2023-08-01T14:28:41;6.47;;;2.00;;
60038;SDS011;45916;52.734;6.544;2023-08-01T14:31:07;5.72;;;1.83;;
60038;SDS011;45916;52.734;6.544;2023-08-01T14:33:33;6.88;;;2.13;;
60038;SDS011;45916;52.734;6.544;2023-08-01T14:35:59;5.40;;;1.90;;
60038;SDS011;45916;52.734;6.544;2023-08-01T14:38:25;6.93;;;2.28;;
60038;SDS011;45916;52.734;6.544;2023-08-01T14:40:51;5.93;;;1.50;;
60038;SDS011;45916;52.734;6.544;2023-08-01T14:43:18;3.25;;;1.02;;
60038;SDS011;45916;52.734;6.544;2023-08-01T14:45:44;5.32;;;1.35;;
60038;SDS011;45916;52.734;6.544;2023-08-01T14:48:10;3.05;;;1.00;;
60038;SDS011;45916;52.734;6.544;2023-08-01T14:50:37;6.03;;;1.10;;
60038;SDS011;45916;52.734;6.544;2023-08-01T14:53:03;4.43;;;1.00;;
60038;SDS011;45916;52.734;6.544;2023-08-01T14:55:31;4.28;;;1.25;;